sensor_id;sensor_type;location;lat;lon;timestamp;P1;durP1;ratioP1;P2;durP2;ratioP2
17997;SDS011;9124;48.144;17.098;2023-10-31T00:00:29;7.22;;;3.78;;
17997;SDS011;9124;48.144;17.098;2023-10-31T00:04:56;3.95;;;3.55;;
17997;SDS011;9124;48.144;17.098;2023-10-31T00:09:22;5.53;;;4.00;;
17997;SDS011;9124;48.144;17.098;2023-10-31T00:13:49;7.65;;;3.30;;
17997;SDS011;9124;48.144;17.098;2023-10-31T00:18:15;10.80;;;3.85;;
17997;SDS011;9124;48.144;17.098;2023-10-31T00:22:42;4.32;;;3.88;;
17997;SDS011;9124;48.144;17.098;2023-10-31T00:27:08;8.35;;;3.95;;
17997;SDS011;9124;48.144;17.098;2023-10-31T00:31:36;5.63;;;4.03;;
17997;SDS011;9124;48.144;17.098;2023-10-31T00:36:07;5.57;;;3.90;;
17997;SDS011;9124;48.144;17.098;2023-10-31T00:40:34;6.28;;;4.03;;
17997;SDS011;9124;48.144;17.098;2023-10-31T00:45:00;5.82;;;3.97;;
17997;SDS011;9124;48.144;17.098;2023-10-31T00:49:26;5.00;;;4.50;;
17997;SDS011;9124;48.144;17.098;2023-10-31T00:53:53;5.25;;;4.05;;
17997;SDS011;9124;48.144;17.098;2023-10-31T00:58:19;4.82;;;3.60;;
17997;SDS011;9124;48.144;17.098;2023-10-31T01:02:46;5.00;;;4.57;;
17997;SDS011;9124;48.144;17.098;2023-10-31T01:07:12;7.07;;;4.78;;
17997;SDS011;9124;48.144;17.098;2023-10-31T01:11:42;6.93;;;4.40;;
17997;SDS011;9124;48.144;17.098;2023-10-31T01:16:08;7.47;;;4.75;;
17997;SDS011;9124;48.144;17.098;2023-10-31T01:20:35;6.07;;;4.38;;
17997;SDS011;9124;48.144;17.098;2023-10-31T01:25:03;4.82;;;4.32;;
17997;SDS011;9124;48.144;17.098;2023-10-31T01:29:29;4.78;;;4.35;;
17997;SDS011;9124;48.144;17.098;2023-10-31T01:33:56;4.53;;;4.05;;
17997;SDS011;9124;48.144;17.098;2023-10-31T01:38:23;4.55;;;4.00;;
17997;SDS011;9124;48.144;17.098;2023-10-31T01:42:49;6.10;;;3.75;;
17997;SDS011;9124;48.144;17.098;2023-10-31T01:47:15;4.72;;;3.88;;
17997;SDS011;9124;48.144;17.098;2023-10-31T01:51:42;6.70;;;3.70;;
17997;SDS011;9124;48.144;17.098;2023-10-31T01:56:10;5.07;;;3.88;;
17997;SDS011;9124;48.144;17.098;2023-10-31T02:00:36;5.18;;;3.85;;
17997;SDS011;9124;48.144;17.098;2023-10-31T02:05:09;4.93;;;4.43;;
17997;SDS011;9124;48.144;17.098;2023-10-31T02:09:36;6.25;;;4.60;;
17997;SDS011;9124;48.144;17.098;2023-10-31T02:14:03;9.38;;;4.35;;
17997;SDS011;9124;48.144;17.098;2023-10-31T02:18:29;4.43;;;4.05;;
17997;SDS011;9124;48.144;17.098;2023-10-31T02:22:57;9.57;;;3.95;;
17997;SDS011;9124;48.144;17.098;2023-10-31T02:27:24;6.55;;;5.00;;
17997;SDS011;9124;48.144;17.098;2023-10-31T02:31:50;6.50;;;4.70;;
17997;SDS011;9124;48.144;17.098;2023-10-31T02:36:17;7.60;;;5.53;;
17997;SDS011;9124;48.144;17.098;2023-10-31T02:40:44;9.38;;;6.35;;
17997;SDS011;9124;48.144;17.098;2023-10-31T02:45:11;8.88;;;6.70;;
17997;SDS011;9124;48.144;17.098;2023-10-31T02:49:37;7.95;;;6.22;;
17997;SDS011;9124;48.144;17.098;2023-10-31T02:54:04;7.15;;;5.70;;
17997;SDS011;9124;48.144;17.098;2023-10-31T02:58:31;7.03;;;5.85;;
17997;SDS011;9124;48.144;17.098;2023-10-31T03:02:58;10.52;;;5.68;;
17997;SDS011;9124;48.144;17.098;2023-10-31T03:07:24;7.30;;;6.00;;
17997;SDS011;9124;48.144;17.098;2023-10-31T03:11:51;8.70;;;6.53;;
17997;SDS011;9124;48.144;17.098;2023-10-31T03:16:18;9.07;;;6.80;;
17997;SDS011;9124;48.144;17.098;2023-10-31T03:20:46;8.95;;;6.47;;
17997;SDS011;9124;48.144;17.098;2023-10-31T03:25:12;8.25;;;6.00;;
17997;SDS011;9124;48.144;17.098;2023-10-31T03:29:38;9.63;;;6.22;;
17997;SDS011;9124;48.144;17.098;2023-10-31T03:34:06;7.80;;;4.85;;
17997;SDS011;9124;48.144;17.098;2023-10-31T03:38:33;6.00;;;5.40;;
17997;SDS011;9124;48.144;17.098;2023-10-31T03:42:59;8.70;;;4.75;;
17997;SDS011;9124;48.144;17.098;2023-10-31T03:47:26;8.43;;;5.40;;
17997;SDS011;9124;48.144;17.098;2023-10-31T03:51:52;13.43;;;5.50;;
17997;SDS011;9124;48.144;17.098;2023-10-31T03:56:19;9.88;;;5.25;;
17997;SDS011;9124;48.144;17.098;2023-10-31T04:00:45;9.27;;;5.53;;
17997;SDS011;9124;48.144;17.098;2023-10-31T04:05:12;8.25;;;4.80;;
17997;SDS011;9124;48.144;17.098;2023-10-31T04:09:38;7.00;;;4.60;;
17997;SDS011;9124;48.144;17.098;2023-10-31T04:14:05;12.63;;;5.70;;
17997;SDS011;9124;48.144;17.098;2023-10-31T04:18:31;12.63;;;6.88;;
17997;SDS011;9124;48.144;17.098;2023-10-31T04:22:58;11.90;;;6.72;;
17997;SDS011;9124;48.144;17.098;2023-10-31T04:27:25;7.45;;;6.07;;
17997;SDS011;9124;48.144;17.098;2023-10-31T04:31:51;7.53;;;5.90;;
17997;SDS011;9124;48.144;17.098;2023-10-31T04:36:17;10.13;;;6.15;;
17997;SDS011;9124;48.144;17.098;2023-10-31T04:40:44;7.35;;;6.28;;
17997;SDS011;9124;48.144;17.098;2023-10-31T04:45:11;7.75;;;5.72;;
17997;SDS011;9124;48.144;17.098;2023-10-31T04:49:37;8.10;;;4.82;;
17997;SDS011;9124;48.144;17.098;2023-10-31T04:54:03;5.28;;;4.60;;
17997;SDS011;9124;48.144;17.098;2023-10-31T04:58:30;6.93;;;4.05;;
17997;SDS011;9124;48.144;17.098;2023-10-31T05:02:57;5.53;;;3.60;;
17997;SDS011;9124;48.144;17.098;2023-10-31T05:07:23;7.18;;;4.25;;
17997;SDS011;9124;48.144;17.098;2023-10-31T05:11:51;4.75;;;3.80;;
17997;SDS011;9124;48.144;17.098;2023-10-31T05:16:17;6.93;;;4.03;;
17997;SDS011;9124;48.144;17.098;2023-10-31T05:20:43;6.00;;;3.60;;
17997;SDS011;9124;48.144;17.098;2023-10-31T05:25:10;5.80;;;3.97;;
17997;SDS011;9124;48.144;17.098;2023-10-31T05:29:38;4.15;;;3.78;;
17997;SDS011;9124;48.144;17.098;2023-10-31T05:34:05;4.45;;;3.38;;
17997;SDS011;9124;48.144;17.098;2023-10-31T05:38:31;4.63;;;3.92;;
17997;SDS011;9124;48.144;17.098;2023-10-31T05:42:57;4.03;;;2.85;;
17997;SDS011;9124;48.144;17.098;2023-10-31T05:47:24;5.20;;;3.10;;
17997;SDS011;9124;48.144;17.098;2023-10-31T05:51:51;5.60;;;2.58;;
17997;SDS011;9124;48.144;17.098;2023-10-31T05:56:17;3.85;;;2.78;;
17997;SDS011;9124;48.144;17.098;2023-10-31T06:00:44;5.38;;;3.13;;
17997;SDS011;9124;48.144;17.098;2023-10-31T06:05:10;4.95;;;3.47;;
17997;SDS011;9124;48.144;17.098;2023-10-31T06:09:37;3.13;;;2.20;;
17997;SDS011;9124;48.144;17.098;2023-10-31T06:14:03;1.70;;;1.60;;
17997;SDS011;9124;48.144;17.098;2023-10-31T06:18:31;2.15;;;1.50;;
17997;SDS011;9124;48.144;17.098;2023-10-31T06:22:57;0.80;;;0.80;;
17997;SDS011;9124;48.144;17.098;2023-10-31T06:27:25;1.27;;;0.82;;
17997;SDS011;9124;48.144;17.098;2023-10-31T06:31:51;0.57;;;0.57;;
17997;SDS011;9124;48.144;17.098;2023-10-31T06:36:17;0.50;;;0.50;;
17997;SDS011;9124;48.144;17.098;2023-10-31T06:40:43;2.20;;;0.57;;
17997;SDS011;9124;48.144;17.098;2023-10-31T06:45:10;0.47;;;0.47;;
17997;SDS011;9124;48.144;17.098;2023-10-31T06:49:36;1.15;;;0.60;;
17997;SDS011;9124;48.144;17.098;2023-10-31T06:54:03;0.55;;;0.30;;
17997;SDS011;9124;48.144;17.098;2023-10-31T06:58:29;0.40;;;0.40;;
17997;SDS011;9124;48.144;17.098;2023-10-31T07:02:56;0.75;;;0.40;;
17997;SDS011;9124;48.144;17.098;2023-10-31T07:07:24;0.40;;;0.40;;
17997;SDS011;9124;48.144;17.098;2023-10-31T07:11:53;0.40;;;0.40;;
17997;SDS011;9124;48.144;17.098;2023-10-31T07:16:19;0.20;;;0.20;;
17997;SDS011;9124;48.144;17.098;2023-10-31T07:20:45;0.30;;;0.30;;
17997;SDS011;9124;48.144;17.098;2023-10-31T07:25:11;0.40;;;0.40;;
17997;SDS011;9124;48.144;17.098;2023-10-31T07:29:40;1.85;;;0.60;;
17997;SDS011;9124;48.144;17.098;2023-10-31T07:34:06;2.85;;;0.43;;
17997;SDS011;9124;48.144;17.098;2023-10-31T07:38:33;0.20;;;0.20;;
17997;SDS011;9124;48.144;17.098;2023-10-31T07:43:00;0.60;;;0.60;;
17997;SDS011;9124;48.144;17.098;2023-10-31T07:47:27;1.98;;;0.63;;
17997;SDS011;9124;48.144;17.098;2023-10-31T07:51:53;0.45;;;0.30;;
17997;SDS011;9124;48.144;17.098;2023-10-31T07:56:20;0.20;;;0.20;;
17997;SDS011;9124;48.144;17.098;2023-10-31T08:00:48;0.52;;;0.47;;
17997;SDS011;9124;48.144;17.098;2023-10-31T08:05:15;0.40;;;0.40;;
17997;SDS011;9124;48.144;17.098;2023-10-31T08:09:42;0.22;;;0.20;;
17997;SDS011;9124;48.144;17.098;2023-10-31T08:14:09;1.38;;;0.22;;
17997;SDS011;9124;48.144;17.098;2023-10-31T08:18:36;0.77;;;0.30;;
17997;SDS011;9124;48.144;17.098;2023-10-31T08:23:02;0.73;;;0.40;;
17997;SDS011;9124;48.144;17.098;2023-10-31T08:27:28;0.38;;;0.38;;
17997;SDS011;9124;48.144;17.098;2023-10-31T08:31:55;2.03;;;0.40;;
17997;SDS011;9124;48.144;17.098;2023-10-31T08:36:22;0.30;;;0.30;;
17997;SDS011;9124;48.144;17.098;2023-10-31T08:40:48;3.00;;;0.60;;
17997;SDS011;9124;48.144;17.098;2023-10-31T08:45:15;1.45;;;0.47;;
17997;SDS011;9124;48.144;17.098;2023-10-31T08:49:41;2.22;;;0.43;;
17997;SDS011;9124;48.144;17.098;2023-10-31T08:54:07;2.70;;;0.43;;
17997;SDS011;9124;48.144;17.098;2023-10-31T08:58:35;3.72;;;0.30;;
17997;SDS011;9124;48.144;17.098;2023-10-31T09:03:01;1.23;;;0.28;;
17997;SDS011;9124;48.144;17.098;2023-10-31T09:07:27;0.28;;;0.28;;
17997;SDS011;9124;48.144;17.098;2023-10-31T09:11:54;1.40;;;0.30;;
17997;SDS011;9124;48.144;17.098;2023-10-31T09:16:20;0.40;;;0.32;;
17997;SDS011;9124;48.144;17.098;2023-10-31T09:20:48;0.82;;;0.20;;
17997;SDS011;9124;48.144;17.098;2023-10-31T09:25:14;2.17;;;0.50;;
17997;SDS011;9124;48.144;17.098;2023-10-31T09:29:40;0.45;;;0.40;;
17997;SDS011;9124;48.144;17.098;2023-10-31T09:34:07;0.55;;;0.40;;
17997;SDS011;9124;48.144;17.098;2023-10-31T09:38:33;0.57;;;0.57;;
17997;SDS011;9124;48.144;17.098;2023-10-31T09:42:59;1.42;;;0.40;;
17997;SDS011;9124;48.144;17.098;2023-10-31T09:47:26;0.70;;;0.70;;
17997;SDS011;9124;48.144;17.098;2023-10-31T09:51:54;2.30;;;0.43;;
17997;SDS011;9124;48.144;17.098;2023-10-31T09:56:21;0.47;;;0.43;;
17997;SDS011;9124;48.144;17.098;2023-10-31T10:00:47;1.88;;;0.68;;
17997;SDS011;9124;48.144;17.098;2023-10-31T10:05:14;0.80;;;0.77;;
17997;SDS011;9124;48.144;17.098;2023-10-31T10:09:43;4.50;;;1.05;;
17997;SDS011;9124;48.144;17.098;2023-10-31T10:14:11;2.05;;;1.02;;
17997;SDS011;9124;48.144;17.098;2023-10-31T10:18:37;1.10;;;0.85;;
17997;SDS011;9124;48.144;17.098;2023-10-31T10:23:05;2.40;;;1.02;;
17997;SDS011;9124;48.144;17.098;2023-10-31T10:27:31;1.63;;;0.90;;
17997;SDS011;9124;48.144;17.098;2023-10-31T10:31:58;2.30;;;1.00;;
17997;SDS011;9124;48.144;17.098;2023-10-31T10:36:24;1.20;;;1.10;;
17997;SDS011;9124;48.144;17.098;2023-10-31T10:40:52;1.30;;;1.20;;
17997;SDS011;9124;48.144;17.098;2023-10-31T10:45:21;3.75;;;2.03;;
17997;SDS011;9124;48.144;17.098;2023-10-31T10:49:47;1.38;;;1.20;;
17997;SDS011;9124;48.144;17.098;2023-10-31T10:54:26;1.17;;;0.98;;
17997;SDS011;9124;48.144;17.098;2023-10-31T10:59:02;2.72;;;1.05;;
17997;SDS011;9124;48.144;17.098;2023-10-31T11:03:34;1.70;;;1.60;;
17997;SDS011;9124;48.144;17.098;2023-10-31T11:08:01;1.80;;;1.70;;
17997;SDS011;9124;48.144;17.098;2023-10-31T11:12:29;3.63;;;1.80;;
17997;SDS011;9124;48.144;17.098;2023-10-31T11:16:58;3.65;;;1.88;;
17997;SDS011;9124;48.144;17.098;2023-10-31T11:21:28;4.70;;;2.03;;
17997;SDS011;9124;48.144;17.098;2023-10-31T11:25:55;3.35;;;2.67;;
17997;SDS011;9124;48.144;17.098;2023-10-31T11:34:53;1.83;;;1.67;;
17997;SDS011;9124;48.144;17.098;2023-10-31T11:39:21;1.85;;;1.67;;
17997;SDS011;9124;48.144;17.098;2023-10-31T11:43:51;2.90;;;1.85;;
17997;SDS011;9124;48.144;17.098;2023-10-31T11:48:31;4.00;;;1.77;;
17997;SDS011;9124;48.144;17.098;2023-10-31T11:53:13;1.92;;;1.60;;
17997;SDS011;9124;48.144;17.098;2023-10-31T11:57:42;2.40;;;2.20;;
17997;SDS011;9124;48.144;17.098;2023-10-31T12:02:15;1.20;;;1.00;;
17997;SDS011;9124;48.144;17.098;2023-10-31T12:06:42;1.15;;;1.05;;
17997;SDS011;9124;48.144;17.098;2023-10-31T12:11:09;3.03;;;1.48;;
17997;SDS011;9124;48.144;17.098;2023-10-31T12:15:51;1.30;;;1.20;;
17997;SDS011;9124;48.144;17.098;2023-10-31T12:20:18;1.45;;;1.35;;
17997;SDS011;9124;48.144;17.098;2023-10-31T12:24:45;1.05;;;0.80;;
17997;SDS011;9124;48.144;17.098;2023-10-31T12:29:19;0.80;;;0.75;;
17997;SDS011;9124;48.144;17.098;2023-10-31T12:33:45;0.90;;;0.88;;
17997;SDS011;9124;48.144;17.098;2023-10-31T12:38:12;3.13;;;0.82;;
17997;SDS011;9124;48.144;17.098;2023-10-31T12:42:39;2.75;;;2.55;;
17997;SDS011;9124;48.144;17.098;2023-10-31T12:47:09;1.20;;;1.10;;
17997;SDS011;9124;48.144;17.098;2023-10-31T12:51:35;1.75;;;0.43;;
17997;SDS011;9124;48.144;17.098;2023-10-31T12:56:02;0.60;;;0.60;;
17997;SDS011;9124;48.144;17.098;2023-10-31T13:00:32;2.63;;;1.00;;
17997;SDS011;9124;48.144;17.098;2023-10-31T13:05:13;0.38;;;0.35;;
17997;SDS011;9124;48.144;17.098;2023-10-31T13:09:41;1.23;;;1.13;;
17997;SDS011;9124;48.144;17.098;2023-10-31T13:14:08;1.42;;;1.10;;
17997;SDS011;9124;48.144;17.098;2023-10-31T13:18:35;3.45;;;3.25;;
17997;SDS011;9124;48.144;17.098;2023-10-31T13:23:01;1.05;;;0.88;;
17997;SDS011;9124;48.144;17.098;2023-10-31T13:27:28;0.50;;;0.50;;
17997;SDS011;9124;48.144;17.098;2023-10-31T13:31:54;0.70;;;0.65;;
17997;SDS011;9124;48.144;17.098;2023-10-31T13:36:21;1.25;;;1.02;;
17997;SDS011;9124;48.144;17.098;2023-10-31T13:40:48;2.17;;;0.77;;
17997;SDS011;9124;48.144;17.098;2023-10-31T13:45:14;1.92;;;1.60;;
17997;SDS011;9124;48.144;17.098;2023-10-31T13:49:41;1.85;;;1.65;;
17997;SDS011;9124;48.144;17.098;2023-10-31T13:54:08;1.73;;;1.02;;
17997;SDS011;9124;48.144;17.098;2023-10-31T13:58:34;3.05;;;0.88;;
17997;SDS011;9124;48.144;17.098;2023-10-31T14:03:01;0.70;;;0.70;;
17997;SDS011;9124;48.144;17.098;2023-10-31T14:07:28;0.60;;;0.60;;
17997;SDS011;9124;48.144;17.098;2023-10-31T14:11:54;0.80;;;0.80;;
17997;SDS011;9124;48.144;17.098;2023-10-31T14:16:20;1.42;;;1.30;;
17997;SDS011;9124;48.144;17.098;2023-10-31T14:20:47;1.50;;;1.40;;
17997;SDS011;9124;48.144;17.098;2023-10-31T14:25:13;1.10;;;1.10;;
17997;SDS011;9124;48.144;17.098;2023-10-31T14:29:41;0.93;;;0.47;;
17997;SDS011;9124;48.144;17.098;2023-10-31T14:34:07;0.60;;;0.60;;
17997;SDS011;9124;48.144;17.098;2023-10-31T14:38:34;0.60;;;0.60;;
17997;SDS011;9124;48.144;17.098;2023-10-31T14:43:00;0.70;;;0.65;;
17997;SDS011;9124;48.144;17.098;2023-10-31T14:47:27;0.68;;;0.68;;
17997;SDS011;9124;48.144;17.098;2023-10-31T14:51:53;0.77;;;0.77;;
17997;SDS011;9124;48.144;17.098;2023-10-31T14:56:20;0.98;;;0.98;;
17997;SDS011;9124;48.144;17.098;2023-10-31T15:00:47;0.90;;;0.90;;
17997;SDS011;9124;48.144;17.098;2023-10-31T15:05:16;0.68;;;0.68;;
17997;SDS011;9124;48.144;17.098;2023-10-31T15:09:42;1.05;;;0.70;;
17997;SDS011;9124;48.144;17.098;2023-10-31T15:14:08;0.75;;;0.70;;
17997;SDS011;9124;48.144;17.098;2023-10-31T15:18:35;0.80;;;0.80;;
17997;SDS011;9124;48.144;17.098;2023-10-31T15:23:01;2.80;;;0.50;;
17997;SDS011;9124;48.144;17.098;2023-10-31T15:27:28;1.15;;;0.70;;
17997;SDS011;9124;48.144;17.098;2023-10-31T15:31:54;0.50;;;0.50;;
17997;SDS011;9124;48.144;17.098;2023-10-31T15:36:21;2.15;;;0.57;;
17997;SDS011;9124;48.144;17.098;2023-10-31T15:40:47;0.68;;;0.68;;
17997;SDS011;9124;48.144;17.098;2023-10-31T15:45:14;1.92;;;0.90;;
17997;SDS011;9124;48.144;17.098;2023-10-31T15:49:40;1.73;;;1.63;;
17997;SDS011;9124;48.144;17.098;2023-10-31T15:54:06;1.40;;;1.30;;
17997;SDS011;9124;48.144;17.098;2023-10-31T15:58:32;1.70;;;1.33;;
17997;SDS011;9124;48.144;17.098;2023-10-31T16:02:59;1.83;;;1.73;;
17997;SDS011;9124;48.144;17.098;2023-10-31T16:07:25;1.35;;;1.20;;
17997;SDS011;9124;48.144;17.098;2023-10-31T16:11:52;1.27;;;1.17;;
17997;SDS011;9124;48.144;17.098;2023-10-31T16:16:18;1.05;;;0.95;;
17997;SDS011;9124;48.144;17.098;2023-10-31T16:20:45;0.77;;;0.77;;
17997;SDS011;9124;48.144;17.098;2023-10-31T16:25:12;1.23;;;0.88;;
17997;SDS011;9124;48.144;17.098;2023-10-31T16:29:39;1.23;;;1.10;;
17997;SDS011;9124;48.144;17.098;2023-10-31T16:34:08;1.27;;;0.93;;
17997;SDS011;9124;48.144;17.098;2023-10-31T16:38:35;1.15;;;1.00;;
17997;SDS011;9124;48.144;17.098;2023-10-31T16:43:01;0.95;;;0.95;;
17997;SDS011;9124;48.144;17.098;2023-10-31T16:47:27;0.82;;;0.82;;
17997;SDS011;9124;48.144;17.098;2023-10-31T16:51:54;3.28;;;1.27;;
17997;SDS011;9124;48.144;17.098;2023-10-31T16:56:20;1.00;;;1.00;;
17997;SDS011;9124;48.144;17.098;2023-10-31T17:00:46;0.95;;;0.90;;
17997;SDS011;9124;48.144;17.098;2023-10-31T17:05:13;1.00;;;0.90;;
17997;SDS011;9124;48.144;17.098;2023-10-31T17:09:39;0.95;;;0.95;;
17997;SDS011;9124;48.144;17.098;2023-10-31T17:14:06;2.30;;;1.15;;
17997;SDS011;9124;48.144;17.098;2023-10-31T17:18:32;1.00;;;0.90;;
17997;SDS011;9124;48.144;17.098;2023-10-31T17:22:58;2.65;;;0.90;;
17997;SDS011;9124;48.144;17.098;2023-10-31T17:27:25;1.27;;;1.13;;
17997;SDS011;9124;48.144;17.098;2023-10-31T17:31:51;1.35;;;1.20;;
17997;SDS011;9124;48.144;17.098;2023-10-31T17:36:18;1.40;;;1.30;;
17997;SDS011;9124;48.144;17.098;2023-10-31T17:40:44;0.93;;;0.93;;
17997;SDS011;9124;48.144;17.098;2023-10-31T17:45:11;2.90;;;1.50;;
17997;SDS011;9124;48.144;17.098;2023-10-31T17:49:37;3.38;;;1.17;;
17997;SDS011;9124;48.144;17.098;2023-10-31T17:54:03;1.23;;;1.00;;
17997;SDS011;9124;48.144;17.098;2023-10-31T17:58:30;1.45;;;1.35;;
17997;SDS011;9124;48.144;17.098;2023-10-31T18:02:57;1.33;;;1.13;;
17997;SDS011;9124;48.144;17.098;2023-10-31T18:07:24;1.70;;;1.60;;
17997;SDS011;9124;48.144;17.098;2023-10-31T18:11:51;1.65;;;1.55;;
17997;SDS011;9124;48.144;17.098;2023-10-31T18:16:17;1.77;;;1.67;;
17997;SDS011;9124;48.144;17.098;2023-10-31T18:20:45;3.58;;;1.90;;
17997;SDS011;9124;48.144;17.098;2023-10-31T18:25:13;3.33;;;1.73;;
17997;SDS011;9124;48.144;17.098;2023-10-31T18:29:40;1.90;;;1.75;;
17997;SDS011;9124;48.144;17.098;2023-10-31T18:34:06;2.63;;;2.28;;
17997;SDS011;9124;48.144;17.098;2023-10-31T18:38:32;3.25;;;2.28;;
17997;SDS011;9124;48.144;17.098;2023-10-31T18:43:00;2.35;;;2.15;;
17997;SDS011;9124;48.144;17.098;2023-10-31T18:47:27;3.00;;;2.80;;
17997;SDS011;9124;48.144;17.098;2023-10-31T18:51:54;4.22;;;3.08;;
17997;SDS011;9124;48.144;17.098;2023-10-31T18:56:20;2.78;;;2.55;;
17997;SDS011;9124;48.144;17.098;2023-10-31T19:00:46;3.58;;;2.45;;
17997;SDS011;9124;48.144;17.098;2023-10-31T19:05:13;3.00;;;2.80;;
17997;SDS011;9124;48.144;17.098;2023-10-31T19:09:40;2.45;;;2.25;;
17997;SDS011;9124;48.144;17.098;2023-10-31T19:14:06;2.65;;;2.42;;
17997;SDS011;9124;48.144;17.098;2023-10-31T19:18:33;3.95;;;2.92;;
17997;SDS011;9124;48.144;17.098;2023-10-31T19:23:00;2.80;;;2.60;;
17997;SDS011;9124;48.144;17.098;2023-10-31T19:27:28;2.63;;;2.42;;
17997;SDS011;9124;48.144;17.098;2023-10-31T19:31:54;2.65;;;2.17;;
17997;SDS011;9124;48.144;17.098;2023-10-31T19:36:21;8.35;;;2.58;;
17997;SDS011;9124;48.144;17.098;2023-10-31T19:40:48;2.50;;;2.30;;
17997;SDS011;9124;48.144;17.098;2023-10-31T19:45:15;1.88;;;1.67;;
17997;SDS011;9124;48.144;17.098;2023-10-31T19:49:42;3.58;;;1.70;;
17997;SDS011;9124;48.144;17.098;2023-10-31T19:54:09;1.88;;;1.77;;
17997;SDS011;9124;48.144;17.098;2023-10-31T19:58:35;1.77;;;1.55;;
17997;SDS011;9124;48.144;17.098;2023-10-31T20:03:02;3.58;;;1.83;;
17997;SDS011;9124;48.144;17.098;2023-10-31T20:07:28;2.67;;;1.30;;
17997;SDS011;9124;48.144;17.098;2023-10-31T20:11:55;1.52;;;1.40;;
17997;SDS011;9124;48.144;17.098;2023-10-31T20:16:21;1.90;;;1.33;;
17997;SDS011;9124;48.144;17.098;2023-10-31T20:20:48;2.42;;;1.80;;
17997;SDS011;9124;48.144;17.098;2023-10-31T20:25:14;3.17;;;1.50;;
17997;SDS011;9124;48.144;17.098;2023-10-31T20:29:42;1.60;;;1.50;;
17997;SDS011;9124;48.144;17.098;2023-10-31T20:34:08;1.50;;;1.35;;
17997;SDS011;9124;48.144;17.098;2023-10-31T20:38:35;3.90;;;1.48;;
17997;SDS011;9124;48.144;17.098;2023-10-31T20:43:01;4.03;;;1.55;;
17997;SDS011;9124;48.144;17.098;2023-10-31T20:47:27;1.55;;;1.45;;
17997;SDS011;9124;48.144;17.098;2023-10-31T20:51:56;2.55;;;1.65;;
17997;SDS011;9124;48.144;17.098;2023-10-31T20:56:23;1.73;;;1.48;;
17997;SDS011;9124;48.144;17.098;2023-10-31T21:00:50;1.50;;;1.23;;
17997;SDS011;9124;48.144;17.098;2023-10-31T21:05:16;3.33;;;1.50;;
17997;SDS011;9124;48.144;17.098;2023-10-31T21:09:42;3.40;;;1.55;;
17997;SDS011;9124;48.144;17.098;2023-10-31T21:14:09;2.90;;;1.60;;
17997;SDS011;9124;48.144;17.098;2023-10-31T21:18:36;2.33;;;1.40;;
17997;SDS011;9124;48.144;17.098;2023-10-31T21:23:02;2.60;;;1.73;;
17997;SDS011;9124;48.144;17.098;2023-10-31T21:27:29;2.33;;;1.25;;
17997;SDS011;9124;48.144;17.098;2023-10-31T21:31:55;5.28;;;2.42;;
17997;SDS011;9124;48.144;17.098;2023-10-31T21:36:22;2.90;;;1.50;;
17997;SDS011;9124;48.144;17.098;2023-10-31T21:40:48;1.40;;;1.20;;
17997;SDS011;9124;48.144;17.098;2023-10-31T21:45:15;1.98;;;1.05;;
17997;SDS011;9124;48.144;17.098;2023-10-31T21:49:42;1.73;;;1.50;;
17997;SDS011;9124;48.144;17.098;2023-10-31T21:54:08;1.63;;;1.45;;
17997;SDS011;9124;48.144;17.098;2023-10-31T21:58:35;2.15;;;1.45;;
17997;SDS011;9124;48.144;17.098;2023-10-31T22:03:01;1.48;;;1.10;;
17997;SDS011;9124;48.144;17.098;2023-10-31T22:07:29;1.98;;;1.33;;
17997;SDS011;9124;48.144;17.098;2023-10-31T22:11:56;2.35;;;2.15;;
17997;SDS011;9124;48.144;17.098;2023-10-31T22:16:22;2.95;;;1.45;;
17997;SDS011;9124;48.144;17.098;2023-10-31T22:20:50;3.45;;;1.80;;
17997;SDS011;9124;48.144;17.098;2023-10-31T22:25:16;5.88;;;2.03;;
17997;SDS011;9124;48.144;17.098;2023-10-31T22:29:43;1.52;;;1.42;;
17997;SDS011;9124;48.144;17.098;2023-10-31T22:34:09;4.80;;;1.48;;
17997;SDS011;9124;48.144;17.098;2023-10-31T22:38:37;2.53;;;1.33;;
17997;SDS011;9124;48.144;17.098;2023-10-31T22:43:03;21.40;;;15.07;;
17997;SDS011;9124;48.144;17.098;2023-10-31T22:47:30;2.25;;;1.88;;
17997;SDS011;9124;48.144;17.098;2023-10-31T22:51:57;2.72;;;2.53;;
17997;SDS011;9124;48.144;17.098;2023-10-31T22:56:24;3.20;;;1.77;;
17997;SDS011;9124;48.144;17.098;2023-10-31T23:00:50;4.25;;;2.70;;
17997;SDS011;9124;48.144;17.098;2023-10-31T23:05:17;6.30;;;5.60;;
17997;SDS011;9124;48.144;17.098;2023-10-31T23:09:43;4.05;;;1.67;;
17997;SDS011;9124;48.144;17.098;2023-10-31T23:14:10;7.80;;;2.33;;
17997;SDS011;9124;48.144;17.098;2023-10-31T23:18:36;4.70;;;2.40;;
17997;SDS011;9124;48.144;17.098;2023-10-31T23:23:04;8.25;;;2.30;;
17997;SDS011;9124;48.144;17.098;2023-10-31T23:27:31;3.45;;;1.83;;
17997;SDS011;9124;48.144;17.098;2023-10-31T23:31:57;2.63;;;1.80;;
17997;SDS011;9124;48.144;17.098;2023-10-31T23:36:25;3.33;;;1.70;;
17997;SDS011;9124;48.144;17.098;2023-10-31T23:40:51;2.78;;;2.58;;
17997;SDS011;9124;48.144;17.098;2023-10-31T23:45:17;8.07;;;2.97;;
17997;SDS011;9124;48.144;17.098;2023-10-31T23:49:46;3.30;;;2.80;;
17997;SDS011;9124;48.144;17.098;2023-10-31T23:54:13;6.60;;;3.67;;
17997;SDS011;9124;48.144;17.098;2023-10-31T23:58:39;3.88;;;3.45;;
